sensor_id;sensor_type;location;lat;lon;timestamp;temperature;humidity
12819;DHT22;6474;53.474;9.894;2022-08-19T00:01:23;20.80;69.00
12819;DHT22;6474;53.474;9.894;2022-08-19T00:03:56;20.80;69.00
12819;DHT22;6474;53.474;9.894;2022-08-19T00:06:24;20.70;68.90
12819;DHT22;6474;53.474;9.894;2022-08-19T00:08:52;20.70;68.90
12819;DHT22;6474;53.474;9.894;2022-08-19T00:11:20;20.70;68.90
12819;DHT22;6474;53.474;9.894;2022-08-19T00:13:52;20.70;69.00
12819;DHT22;6474;53.474;9.894;2022-08-19T00:16:23;20.70;69.00
12819;DHT22;6474;53.474;9.894;2022-08-19T00:18:52;20.70;69.00
12819;DHT22;6474;53.474;9.894;2022-08-19T00:21:20;20.70;68.90
12819;DHT22;6474;53.474;9.894;2022-08-19T00:23:48;20.70;69.00
12819;DHT22;6474;53.474;9.894;2022-08-19T00:26:16;20.60;68.90
12819;DHT22;6474;53.474;9.894;2022-08-19T00:28:43;20.60;69.00
12819;DHT22;6474;53.474;9.894;2022-08-19T00:31:13;20.60;69.00
12819;DHT22;6474;53.474;9.894;2022-08-19T00:33:42;20.60;69.00
12819;DHT22;6474;53.474;9.894;2022-08-19T00:36:11;20.60;69.00
12819;DHT22;6474;53.474;9.894;2022-08-19T00:38:39;20.60;69.00
12819;DHT22;6474;53.474;9.894;2022-08-19T00:41:10;20.60;69.00
12819;DHT22;6474;53.474;9.894;2022-08-19T00:43:38;20.60;69.00
12819;DHT22;6474;53.474;9.894;2022-08-19T00:46:07;20.60;69.00
12819;DHT22;6474;53.474;9.894;2022-08-19T00:48:36;20.50;69.20
12819;DHT22;6474;53.474;9.894;2022-08-19T00:51:05;20.50;68.90
12819;DHT22;6474;53.474;9.894;2022-08-19T00:53:33;20.50;69.00
12819;DHT22;6474;53.474;9.894;2022-08-19T00:56:02;20.50;69.10
12819;DHT22;6474;53.474;9.894;2022-08-19T00:58:35;20.50;69.20
12819;DHT22;6474;53.474;9.894;2022-08-19T01:01:04;20.50;69.20
12819;DHT22;6474;53.474;9.894;2022-08-19T01:03:32;20.50;69.20
12819;DHT22;6474;53.474;9.894;2022-08-19T01:06:21;20.50;69.30
12819;DHT22;6474;53.474;9.894;2022-08-19T01:08:49;20.50;69.30
12819;DHT22;6474;53.474;9.894;2022-08-19T01:11:17;20.50;69.30
12819;DHT22;6474;53.474;9.894;2022-08-19T01:13:45;20.50;69.30
12819;DHT22;6474;53.474;9.894;2022-08-19T01:16:17;20.40;69.20
12819;DHT22;6474;53.474;9.894;2022-08-19T01:18:46;20.40;69.20
12819;DHT22;6474;53.474;9.894;2022-08-19T01:21:18;20.40;69.20
12819;DHT22;6474;53.474;9.894;2022-08-19T01:23:48;20.40;70.00
12819;DHT22;6474;53.474;9.894;2022-08-19T01:26:19;20.50;69.30
12819;DHT22;6474;53.474;9.894;2022-08-19T01:28:51;20.50;69.30
12819;DHT22;6474;53.474;9.894;2022-08-19T01:31:25;20.50;69.30
12819;DHT22;6474;53.474;9.894;2022-08-19T01:33:55;20.50;69.30
12819;DHT22;6474;53.474;9.894;2022-08-19T01:36:25;20.50;69.30
12819;DHT22;6474;53.474;9.894;2022-08-19T01:38:57;20.50;69.30
12819;DHT22;6474;53.474;9.894;2022-08-19T01:41:26;20.50;69.30
12819;DHT22;6474;53.474;9.894;2022-08-19T01:43:54;20.50;69.30
12819;DHT22;6474;53.474;9.894;2022-08-19T01:46:43;20.50;69.20
12819;DHT22;6474;53.474;9.894;2022-08-19T01:49:11;20.50;69.20
12819;DHT22;6474;53.474;9.894;2022-08-19T01:51:39;20.50;69.30
12819;DHT22;6474;53.474;9.894;2022-08-19T01:54:09;20.50;69.30
12819;DHT22;6474;53.474;9.894;2022-08-19T01:56:37;20.50;69.30
12819;DHT22;6474;53.474;9.894;2022-08-19T01:59:11;20.50;69.20
12819;DHT22;6474;53.474;9.894;2022-08-19T02:01:39;20.50;69.30
12819;DHT22;6474;53.474;9.894;2022-08-19T02:04:08;20.40;69.20
12819;DHT22;6474;53.474;9.894;2022-08-19T02:06:36;20.50;69.30
12819;DHT22;6474;53.474;9.894;2022-08-19T02:09:05;20.50;69.30
12819;DHT22;6474;53.474;9.894;2022-08-19T02:11:36;20.40;69.20
12819;DHT22;6474;53.474;9.894;2022-08-19T02:14:06;20.40;69.30
12819;DHT22;6474;53.474;9.894;2022-08-19T02:16:35;20.40;69.30
12819;DHT22;6474;53.474;9.894;2022-08-19T02:19:04;20.40;69.30
12819;DHT22;6474;53.474;9.894;2022-08-19T02:21:32;20.40;69.40
12819;DHT22;6474;53.474;9.894;2022-08-19T02:24:00;20.40;69.40
12819;DHT22;6474;53.474;9.894;2022-08-19T02:26:29;20.40;69.40
12819;DHT22;6474;53.474;9.894;2022-08-19T02:28:58;20.40;69.40
12819;DHT22;6474;53.474;9.894;2022-08-19T02:31:27;20.30;69.40
12819;DHT22;6474;53.474;9.894;2022-08-19T02:33:55;20.30;69.50
12819;DHT22;6474;53.474;9.894;2022-08-19T02:36:24;20.30;69.50
12819;DHT22;6474;53.474;9.894;2022-08-19T02:38:53;20.30;69.50
12819;DHT22;6474;53.474;9.894;2022-08-19T02:41:23;20.30;69.60
12819;DHT22;6474;53.474;9.894;2022-08-19T02:43:53;20.30;69.60
12819;DHT22;6474;53.474;9.894;2022-08-19T02:46:42;20.30;69.60
12819;DHT22;6474;53.474;9.894;2022-08-19T02:49:11;20.30;69.60
12819;DHT22;6474;53.474;9.894;2022-08-19T02:51:40;20.30;69.50
12819;DHT22;6474;53.474;9.894;2022-08-19T02:54:11;20.30;69.50
12819;DHT22;6474;53.474;9.894;2022-08-19T02:56:40;20.30;69.60
12819;DHT22;6474;53.474;9.894;2022-08-19T02:59:08;20.30;69.60
12819;DHT22;6474;53.474;9.894;2022-08-19T03:01:40;20.30;69.60
12819;DHT22;6474;53.474;9.894;2022-08-19T03:04:12;20.20;69.50
12819;DHT22;6474;53.474;9.894;2022-08-19T03:06:43;20.30;69.70
12819;DHT22;6474;53.474;9.894;2022-08-19T03:09:12;20.30;69.70
12819;DHT22;6474;53.474;9.894;2022-08-19T03:11:40;20.30;69.70
12819;DHT22;6474;53.474;9.894;2022-08-19T03:14:09;20.30;69.70
12819;DHT22;6474;53.474;9.894;2022-08-19T03:16:41;20.30;69.60
12819;DHT22;6474;53.474;9.894;2022-08-19T03:19:11;20.30;69.60
12819;DHT22;6474;53.474;9.894;2022-08-19T03:21:39;20.30;69.70
12819;DHT22;6474;53.474;9.894;2022-08-19T03:24:08;20.30;69.70
12819;DHT22;6474;53.474;9.894;2022-08-19T03:26:38;20.20;69.60
12819;DHT22;6474;53.474;9.894;2022-08-19T03:29:06;20.20;69.70
12819;DHT22;6474;53.474;9.894;2022-08-19T03:31:40;20.20;69.80
12819;DHT22;6474;53.474;9.894;2022-08-19T03:34:23;20.20;69.90
12819;DHT22;6474;53.474;9.894;2022-08-19T03:36:54;20.20;69.80
12819;DHT22;6474;53.474;9.894;2022-08-19T03:39:23;20.20;69.80
12819;DHT22;6474;53.474;9.894;2022-08-19T03:41:53;20.10;69.80
12819;DHT22;6474;53.474;9.894;2022-08-19T03:44:43;20.10;69.90
12819;DHT22;6474;53.474;9.894;2022-08-19T03:47:12;20.10;70.00
12819;DHT22;6474;53.474;9.894;2022-08-19T03:49:44;20.00;69.80
12819;DHT22;6474;53.474;9.894;2022-08-19T03:52:13;20.00;69.90
12819;DHT22;6474;53.474;9.894;2022-08-19T03:54:42;20.00;70.00
12819;DHT22;6474;53.474;9.894;2022-08-19T03:57:10;20.00;70.00
12819;DHT22;6474;53.474;9.894;2022-08-19T03:59:39;20.00;70.10
12819;DHT22;6474;53.474;9.894;2022-08-19T04:02:09;20.00;70.10
12819;DHT22;6474;53.474;9.894;2022-08-19T04:04:38;19.90;70.00
12819;DHT22;6474;53.474;9.894;2022-08-19T04:07:09;19.90;70.10
12819;DHT22;6474;53.474;9.894;2022-08-19T04:09:37;19.90;70.10
12819;DHT22;6474;53.474;9.894;2022-08-19T04:12:06;19.90;70.10
12819;DHT22;6474;53.474;9.894;2022-08-19T04:14:34;19.90;70.20
12819;DHT22;6474;53.474;9.894;2022-08-19T04:17:03;19.80;70.10
12819;DHT22;6474;53.474;9.894;2022-08-19T04:19:33;19.80;70.20
12819;DHT22;6474;53.474;9.894;2022-08-19T04:22:02;19.80;70.20
12819;DHT22;6474;53.474;9.894;2022-08-19T04:24:32;19.80;70.20
12819;DHT22;6474;53.474;9.894;2022-08-19T04:27:01;19.80;70.20
12819;DHT22;6474;53.474;9.894;2022-08-19T04:29:30;19.80;70.20
12819;DHT22;6474;53.474;9.894;2022-08-19T04:31:59;19.70;70.20
12819;DHT22;6474;53.474;9.894;2022-08-19T04:34:35;19.70;70.20
12819;DHT22;6474;53.474;9.894;2022-08-19T04:37:23;19.70;70.20
12819;DHT22;6474;53.474;9.894;2022-08-19T04:40:03;19.80;70.20
12819;DHT22;6474;53.474;9.894;2022-08-19T04:42:49;19.80;70.20
12819;DHT22;6474;53.474;9.894;2022-08-19T04:45:17;19.80;70.20
12819;DHT22;6474;53.474;9.894;2022-08-19T04:47:48;19.80;70.20
12819;DHT22;6474;53.474;9.894;2022-08-19T04:50:39;19.80;70.20
12819;DHT22;6474;53.474;9.894;2022-08-19T04:53:08;19.80;70.20
12819;DHT22;6474;53.474;9.894;2022-08-19T04:55:40;19.70;70.10
12819;DHT22;6474;53.474;9.894;2022-08-19T04:58:08;19.80;70.20
12819;DHT22;6474;53.474;9.894;2022-08-19T05:00:38;19.80;70.20
12819;DHT22;6474;53.474;9.894;2022-08-19T05:03:07;19.70;70.10
12819;DHT22;6474;53.474;9.894;2022-08-19T05:05:39;19.70;70.20
12819;DHT22;6474;53.474;9.894;2022-08-19T05:08:11;19.70;70.20
12819;DHT22;6474;53.474;9.894;2022-08-19T05:10:42;19.70;70.20
12819;DHT22;6474;53.474;9.894;2022-08-19T05:13:11;19.70;70.30
12819;DHT22;6474;53.474;9.894;2022-08-19T05:15:38;19.70;70.20
12819;DHT22;6474;53.474;9.894;2022-08-19T05:18:06;19.70;70.30
12819;DHT22;6474;53.474;9.894;2022-08-19T05:20:51;19.70;70.30
12819;DHT22;6474;53.474;9.894;2022-08-19T05:23:40;19.70;70.40
12819;DHT22;6474;53.474;9.894;2022-08-19T05:26:09;19.60;70.30
12819;DHT22;6474;53.474;9.894;2022-08-19T05:28:37;19.60;70.30
12819;DHT22;6474;53.474;9.894;2022-08-19T05:31:05;19.60;70.40
12819;DHT22;6474;53.474;9.894;2022-08-19T05:33:33;19.60;70.40
12819;DHT22;6474;53.474;9.894;2022-08-19T05:36:02;19.60;70.50
12819;DHT22;6474;53.474;9.894;2022-08-19T05:38:31;19.60;70.50
12819;DHT22;6474;53.474;9.894;2022-08-19T05:40:59;19.60;70.50
12819;DHT22;6474;53.474;9.894;2022-08-19T05:43:28;19.60;70.60
12819;DHT22;6474;53.474;9.894;2022-08-19T05:45:56;19.60;70.60
12819;DHT22;6474;53.474;9.894;2022-08-19T05:48:24;19.60;70.60
12819;DHT22;6474;53.474;9.894;2022-08-19T05:50:52;19.60;70.60
12819;DHT22;6474;53.474;9.894;2022-08-19T05:53:20;19.60;70.60
12819;DHT22;6474;53.474;9.894;2022-08-19T05:55:48;19.60;70.60
12819;DHT22;6474;53.474;9.894;2022-08-19T05:58:15;19.60;70.60
12819;DHT22;6474;53.474;9.894;2022-08-19T06:00:50;19.60;70.60
12819;DHT22;6474;53.474;9.894;2022-08-19T06:03:19;19.60;70.60
12819;DHT22;6474;53.474;9.894;2022-08-19T06:05:46;19.60;70.60
12819;DHT22;6474;53.474;9.894;2022-08-19T06:08:18;19.60;70.70
12819;DHT22;6474;53.474;9.894;2022-08-19T06:11:14;19.60;70.70
12819;DHT22;6474;53.474;9.894;2022-08-19T06:13:42;19.60;70.70
12819;DHT22;6474;53.474;9.894;2022-08-19T06:16:11;19.60;70.60
12819;DHT22;6474;53.474;9.894;2022-08-19T06:18:39;19.60;70.60
12819;DHT22;6474;53.474;9.894;2022-08-19T06:21:07;19.70;70.70
12819;DHT22;6474;53.474;9.894;2022-08-19T06:23:35;19.70;70.60
12819;DHT22;6474;53.474;9.894;2022-08-19T06:26:02;19.70;70.50
12819;DHT22;6474;53.474;9.894;2022-08-19T06:28:32;19.80;70.50
12819;DHT22;6474;53.474;9.894;2022-08-19T06:31:06;19.80;70.50
12819;DHT22;6474;53.474;9.894;2022-08-19T06:33:35;19.80;70.50
12819;DHT22;6474;53.474;9.894;2022-08-19T06:36:04;19.80;70.40
12819;DHT22;6474;53.474;9.894;2022-08-19T06:38:32;19.80;70.40
12819;DHT22;6474;53.474;9.894;2022-08-19T06:41:02;19.80;70.40
12819;DHT22;6474;53.474;9.894;2022-08-19T06:43:34;19.80;70.50
12819;DHT22;6474;53.474;9.894;2022-08-19T06:46:10;19.80;70.50
12819;DHT22;6474;53.474;9.894;2022-08-19T06:48:41;19.80;70.50
12819;DHT22;6474;53.474;9.894;2022-08-19T06:51:12;19.80;70.50
12819;DHT22;6474;53.474;9.894;2022-08-19T06:53:44;19.80;70.60
12819;DHT22;6474;53.474;9.894;2022-08-19T06:56:14;19.80;70.60
12819;DHT22;6474;53.474;9.894;2022-08-19T06:58:43;19.70;70.50
12819;DHT22;6474;53.474;9.894;2022-08-19T07:01:11;19.80;70.60
12819;DHT22;6474;53.474;9.894;2022-08-19T07:03:40;19.70;70.50
12819;DHT22;6474;53.474;9.894;2022-08-19T07:06:11;19.80;70.60
12819;DHT22;6474;53.474;9.894;2022-08-19T07:08:59;19.80;70.60
12819;DHT22;6474;53.474;9.894;2022-08-19T07:11:27;19.80;70.60
12819;DHT22;6474;53.474;9.894;2022-08-19T07:13:55;19.90;70.60
12819;DHT22;6474;53.474;9.894;2022-08-19T07:16:23;19.90;70.60
12819;DHT22;6474;53.474;9.894;2022-08-19T07:18:56;20.00;71.50
12819;DHT22;6474;53.474;9.894;2022-08-19T07:21:27;20.00;70.60
12819;DHT22;6474;53.474;9.894;2022-08-19T07:23:56;20.10;70.60
12819;DHT22;6474;53.474;9.894;2022-08-19T07:26:33;20.10;70.50
12819;DHT22;6474;53.474;9.894;2022-08-19T07:29:02;20.10;70.60
12819;DHT22;6474;53.474;9.894;2022-08-19T07:31:31;20.10;70.50
12819;DHT22;6474;53.474;9.894;2022-08-19T07:34:05;20.00;70.40
12819;DHT22;6474;53.474;9.894;2022-08-19T07:36:35;20.10;70.60
12819;DHT22;6474;53.474;9.894;2022-08-19T07:39:07;20.10;70.60
12819;DHT22;6474;53.474;9.894;2022-08-19T07:41:36;20.10;70.60
12819;DHT22;6474;53.474;9.894;2022-08-19T07:44:05;20.20;70.70
12819;DHT22;6474;53.474;9.894;2022-08-19T07:46:36;20.20;70.60
12819;DHT22;6474;53.474;9.894;2022-08-19T07:49:08;20.30;70.60
12819;DHT22;6474;53.474;9.894;2022-08-19T07:51:45;20.40;70.60
12819;DHT22;6474;53.474;9.894;2022-08-19T07:54:13;20.40;70.40
12819;DHT22;6474;53.474;9.894;2022-08-19T07:56:41;20.40;70.30
12819;DHT22;6474;53.474;9.894;2022-08-19T07:59:09;20.40;70.30
12819;DHT22;6474;53.474;9.894;2022-08-19T08:01:38;20.40;70.30
12819;DHT22;6474;53.474;9.894;2022-08-19T08:04:08;20.40;70.40
12819;DHT22;6474;53.474;9.894;2022-08-19T08:06:54;20.30;70.30
12819;DHT22;6474;53.474;9.894;2022-08-19T08:09:42;20.30;70.40
12819;DHT22;6474;53.474;9.894;2022-08-19T08:12:21;20.40;70.60
12819;DHT22;6474;53.474;9.894;2022-08-19T08:15:02;20.40;70.50
12819;DHT22;6474;53.474;9.894;2022-08-19T08:17:34;20.40;70.60
12819;DHT22;6474;53.474;9.894;2022-08-19T08:20:18;20.40;70.50
12819;DHT22;6474;53.474;9.894;2022-08-19T08:22:47;20.40;70.60
12819;DHT22;6474;53.474;9.894;2022-08-19T08:25:34;20.40;70.50
12819;DHT22;6474;53.474;9.894;2022-08-19T08:28:03;20.40;70.60
12819;DHT22;6474;53.474;9.894;2022-08-19T08:30:32;20.40;70.60
12819;DHT22;6474;53.474;9.894;2022-08-19T08:33:03;20.50;70.60
12819;DHT22;6474;53.474;9.894;2022-08-19T08:35:33;20.50;70.50
12819;DHT22;6474;53.474;9.894;2022-08-19T08:38:01;20.50;70.50
12819;DHT22;6474;53.474;9.894;2022-08-19T08:40:37;20.60;70.60
12819;DHT22;6474;53.474;9.894;2022-08-19T08:43:09;20.60;70.60
12819;DHT22;6474;53.474;9.894;2022-08-19T08:45:43;20.70;70.60
12819;DHT22;6474;53.474;9.894;2022-08-19T08:48:24;20.70;70.60
12819;DHT22;6474;53.474;9.894;2022-08-19T08:50:54;20.70;70.60
12819;DHT22;6474;53.474;9.894;2022-08-19T08:53:24;20.70;70.60
12819;DHT22;6474;53.474;9.894;2022-08-19T08:56:00;20.80;70.60
12819;DHT22;6474;53.474;9.894;2022-08-19T08:58:35;20.70;70.50
12819;DHT22;6474;53.474;9.894;2022-08-19T09:01:10;20.70;70.50
12819;DHT22;6474;53.474;9.894;2022-08-19T09:03:40;20.80;70.70
12819;DHT22;6474;53.474;9.894;2022-08-19T09:06:16;20.80;70.70
12819;DHT22;6474;53.474;9.894;2022-08-19T09:08:49;20.80;70.70
12819;DHT22;6474;53.474;9.894;2022-08-19T09:11:46;20.90;70.80
12819;DHT22;6474;53.474;9.894;2022-08-19T09:14:28;21.00;70.80
12819;DHT22;6474;53.474;9.894;2022-08-19T09:17:17;21.10;70.60
12819;DHT22;6474;53.474;9.894;2022-08-19T09:19:51;21.10;70.50
12819;DHT22;6474;53.474;9.894;2022-08-19T09:22:21;21.20;70.50
12819;DHT22;6474;53.474;9.894;2022-08-19T09:24:53;21.30;70.40
12819;DHT22;6474;53.474;9.894;2022-08-19T09:27:23;21.30;70.40
12819;DHT22;6474;53.474;9.894;2022-08-19T09:30:13;21.30;70.40
12819;DHT22;6474;53.474;9.894;2022-08-19T09:32:42;21.30;70.30
12819;DHT22;6474;53.474;9.894;2022-08-19T09:35:10;21.40;70.50
12819;DHT22;6474;53.474;9.894;2022-08-19T09:37:40;21.40;70.40
12819;DHT22;6474;53.474;9.894;2022-08-19T09:40:10;21.40;70.40
12819;DHT22;6474;53.474;9.894;2022-08-19T09:42:38;21.40;70.30
12819;DHT22;6474;53.474;9.894;2022-08-19T09:45:19;21.40;70.30
12819;DHT22;6474;53.474;9.894;2022-08-19T09:47:49;21.40;70.40
12819;DHT22;6474;53.474;9.894;2022-08-19T09:50:21;21.40;70.40
12819;DHT22;6474;53.474;9.894;2022-08-19T09:52:51;21.40;70.40
12819;DHT22;6474;53.474;9.894;2022-08-19T09:55:24;21.40;70.30
12819;DHT22;6474;53.474;9.894;2022-08-19T09:57:58;21.40;70.40
12819;DHT22;6474;53.474;9.894;2022-08-19T10:00:26;21.40;70.40
12819;DHT22;6474;53.474;9.894;2022-08-19T10:02:54;21.40;70.30
12819;DHT22;6474;53.474;9.894;2022-08-19T10:05:22;21.50;70.40
12819;DHT22;6474;53.474;9.894;2022-08-19T10:08:12;21.40;70.40
12819;DHT22;6474;53.474;9.894;2022-08-19T10:10:40;21.40;70.50
12819;DHT22;6474;53.474;9.894;2022-08-19T10:13:13;21.40;71.20
12819;DHT22;6474;53.474;9.894;2022-08-19T10:15:42;21.40;70.50
12819;DHT22;6474;53.474;9.894;2022-08-19T10:18:15;21.40;70.50
12819;DHT22;6474;53.474;9.894;2022-08-19T10:20:45;21.40;70.60
12819;DHT22;6474;53.474;9.894;2022-08-19T10:23:19;21.40;70.60
12819;DHT22;6474;53.474;9.894;2022-08-19T10:25:48;21.50;70.70
12819;DHT22;6474;53.474;9.894;2022-08-19T10:28:20;21.50;70.60
12819;DHT22;6474;53.474;9.894;2022-08-19T10:30:49;21.50;70.50
12819;DHT22;6474;53.474;9.894;2022-08-19T10:33:17;21.50;70.50
12819;DHT22;6474;53.474;9.894;2022-08-19T10:36:07;21.50;70.50
12819;DHT22;6474;53.474;9.894;2022-08-19T10:38:37;21.50;70.50
12819;DHT22;6474;53.474;9.894;2022-08-19T10:41:19;21.50;70.50
12819;DHT22;6474;53.474;9.894;2022-08-19T10:43:51;21.40;70.40
12819;DHT22;6474;53.474;9.894;2022-08-19T10:46:22;21.50;70.60
12819;DHT22;6474;53.474;9.894;2022-08-19T10:48:51;21.40;70.50
12819;DHT22;6474;53.474;9.894;2022-08-19T10:51:19;21.40;70.60
12819;DHT22;6474;53.474;9.894;2022-08-19T10:54:15;21.40;70.80
12819;DHT22;6474;53.474;9.894;2022-08-19T10:56:56;21.40;70.80
12819;DHT22;6474;53.474;9.894;2022-08-19T10:59:25;21.40;70.70
12819;DHT22;6474;53.474;9.894;2022-08-19T11:02:00;21.40;70.70
12819;DHT22;6474;53.474;9.894;2022-08-19T11:04:29;21.40;70.70
12819;DHT22;6474;53.474;9.894;2022-08-19T11:06:58;21.40;70.70
12819;DHT22;6474;53.474;9.894;2022-08-19T11:09:27;21.40;70.70
12819;DHT22;6474;53.474;9.894;2022-08-19T11:12:00;21.50;70.90
12819;DHT22;6474;53.474;9.894;2022-08-19T11:14:30;21.50;71.00
12819;DHT22;6474;53.474;9.894;2022-08-19T11:17:00;21.60;70.90
12819;DHT22;6474;53.474;9.894;2022-08-19T11:19:28;21.70;70.80
12819;DHT22;6474;53.474;9.894;2022-08-19T11:21:56;21.80;70.80
12819;DHT22;6474;53.474;9.894;2022-08-19T11:24:31;21.90;70.70
12819;DHT22;6474;53.474;9.894;2022-08-19T11:27:02;22.00;70.60
12819;DHT22;6474;53.474;9.894;2022-08-19T11:29:32;22.10;70.70
12819;DHT22;6474;53.474;9.894;2022-08-19T11:32:03;22.10;70.60
12819;DHT22;6474;53.474;9.894;2022-08-19T11:34:32;22.20;70.80
12819;DHT22;6474;53.474;9.894;2022-08-19T11:37:02;22.30;70.80
12819;DHT22;6474;53.474;9.894;2022-08-19T11:39:33;22.40;70.80
12819;DHT22;6474;53.474;9.894;2022-08-19T11:42:04;22.60;70.90
12819;DHT22;6474;53.474;9.894;2022-08-19T11:44:54;22.60;70.60
12819;DHT22;6474;53.474;9.894;2022-08-19T11:47:22;22.60;70.40
12819;DHT22;6474;53.474;9.894;2022-08-19T11:49:50;22.60;70.50
12819;DHT22;6474;53.474;9.894;2022-08-19T11:52:19;22.60;70.50
12819;DHT22;6474;53.474;9.894;2022-08-19T11:54:48;22.50;70.50
12819;DHT22;6474;53.474;9.894;2022-08-19T11:57:16;22.50;70.60
12819;DHT22;6474;53.474;9.894;2022-08-19T11:59:49;22.50;70.70
12819;DHT22;6474;53.474;9.894;2022-08-19T12:02:18;22.50;70.80
12819;DHT22;6474;53.474;9.894;2022-08-19T12:04:46;22.60;70.90
12819;DHT22;6474;53.474;9.894;2022-08-19T12:07:14;22.70;70.90
12819;DHT22;6474;53.474;9.894;2022-08-19T12:09:42;22.80;70.90
12819;DHT22;6474;53.474;9.894;2022-08-19T12:12:12;22.90;70.90
12819;DHT22;6474;53.474;9.894;2022-08-19T12:14:40;23.10;71.00
12819;DHT22;6474;53.474;9.894;2022-08-19T12:17:08;23.20;70.80
12819;DHT22;6474;53.474;9.894;2022-08-19T12:19:39;23.30;70.60
12819;DHT22;6474;53.474;9.894;2022-08-19T12:22:07;23.40;70.50
12819;DHT22;6474;53.474;9.894;2022-08-19T12:24:35;23.50;70.40
12819;DHT22;6474;53.474;9.894;2022-08-19T12:27:03;23.70;70.50
12819;DHT22;6474;53.474;9.894;2022-08-19T12:29:39;23.90;70.50
12819;DHT22;6474;53.474;9.894;2022-08-19T12:32:08;24.20;70.20
12819;DHT22;6474;53.474;9.894;2022-08-19T12:34:38;24.40;70.00
12819;DHT22;6474;53.474;9.894;2022-08-19T12:37:07;24.40;69.80
12819;DHT22;6474;53.474;9.894;2022-08-19T12:39:37;24.40;69.90
12819;DHT22;6474;53.474;9.894;2022-08-19T12:42:05;24.50;70.10
12819;DHT22;6474;53.474;9.894;2022-08-19T12:44:35;24.50;70.00
12819;DHT22;6474;53.474;9.894;2022-08-19T12:47:12;24.50;70.10
12819;DHT22;6474;53.474;9.894;2022-08-19T12:49:41;24.40;70.10
12819;DHT22;6474;53.474;9.894;2022-08-19T12:52:21;24.40;70.20
12819;DHT22;6474;53.474;9.894;2022-08-19T12:54:50;24.30;70.30
12819;DHT22;6474;53.474;9.894;2022-08-19T12:57:21;24.20;70.50
12819;DHT22;6474;53.474;9.894;2022-08-19T12:59:58;24.10;70.60
12819;DHT22;6474;53.474;9.894;2022-08-19T13:02:28;24.10;70.60
12819;DHT22;6474;53.474;9.894;2022-08-19T13:05:05;24.00;70.70
12819;DHT22;6474;53.474;9.894;2022-08-19T13:07:35;24.00;70.90
12819;DHT22;6474;53.474;9.894;2022-08-19T13:10:05;24.00;70.90
12819;DHT22;6474;53.474;9.894;2022-08-19T13:12:33;24.00;70.90
12819;DHT22;6474;53.474;9.894;2022-08-19T13:15:00;24.00;70.90
12819;DHT22;6474;53.474;9.894;2022-08-19T13:17:38;24.00;70.90
12819;DHT22;6474;53.474;9.894;2022-08-19T13:20:08;24.00;70.90
12819;DHT22;6474;53.474;9.894;2022-08-19T13:22:37;24.10;71.00
12819;DHT22;6474;53.474;9.894;2022-08-19T13:25:06;24.10;71.00
12819;DHT22;6474;53.474;9.894;2022-08-19T13:27:34;24.20;71.10
12819;DHT22;6474;53.474;9.894;2022-08-19T13:30:04;24.20;71.10
12819;DHT22;6474;53.474;9.894;2022-08-19T13:32:52;24.20;71.70
12819;DHT22;6474;53.474;9.894;2022-08-19T13:35:39;24.20;70.90
12819;DHT22;6474;53.474;9.894;2022-08-19T13:38:07;24.20;71.00
12819;DHT22;6474;53.474;9.894;2022-08-19T13:40:38;24.20;71.10
12819;DHT22;6474;53.474;9.894;2022-08-19T13:43:08;24.20;71.10
12819;DHT22;6474;53.474;9.894;2022-08-19T13:45:48;24.20;71.10
12819;DHT22;6474;53.474;9.894;2022-08-19T13:48:18;24.20;71.10
12819;DHT22;6474;53.474;9.894;2022-08-19T13:50:46;24.20;71.10
12819;DHT22;6474;53.474;9.894;2022-08-19T13:53:15;24.30;71.10
12819;DHT22;6474;53.474;9.894;2022-08-19T13:55:43;24.30;71.10
12819;DHT22;6474;53.474;9.894;2022-08-19T13:58:12;24.30;70.90
12819;DHT22;6474;53.474;9.894;2022-08-19T14:00:44;24.30;70.90
12819;DHT22;6474;53.474;9.894;2022-08-19T14:03:13;24.30;70.90
12819;DHT22;6474;53.474;9.894;2022-08-19T14:05:42;24.30;70.90
12819;DHT22;6474;53.474;9.894;2022-08-19T14:08:10;24.30;71.00
12819;DHT22;6474;53.474;9.894;2022-08-19T14:10:40;24.30;71.00
12819;DHT22;6474;53.474;9.894;2022-08-19T14:13:13;24.30;71.00
12819;DHT22;6474;53.474;9.894;2022-08-19T14:15:42;24.20;71.10
12819;DHT22;6474;53.474;9.894;2022-08-19T14:18:10;24.20;71.10
12819;DHT22;6474;53.474;9.894;2022-08-19T14:20:38;24.20;71.10
12819;DHT22;6474;53.474;9.894;2022-08-19T14:23:08;24.20;71.10
12819;DHT22;6474;53.474;9.894;2022-08-19T14:25:37;24.20;71.10
12819;DHT22;6474;53.474;9.894;2022-08-19T14:28:05;24.20;71.10
12819;DHT22;6474;53.474;9.894;2022-08-19T14:30:37;24.20;71.10
12819;DHT22;6474;53.474;9.894;2022-08-19T14:33:09;24.30;71.00
12819;DHT22;6474;53.474;9.894;2022-08-19T14:35:38;24.30;70.90
12819;DHT22;6474;53.474;9.894;2022-08-19T14:38:17;24.30;70.80
12819;DHT22;6474;53.474;9.894;2022-08-19T14:41:06;24.30;70.80
12819;DHT22;6474;53.474;9.894;2022-08-19T14:43:35;24.40;70.80
12819;DHT22;6474;53.474;9.894;2022-08-19T14:46:03;24.40;70.70
12819;DHT22;6474;53.474;9.894;2022-08-19T14:48:31;24.40;70.70
12819;DHT22;6474;53.474;9.894;2022-08-19T14:50:59;24.40;70.70
12819;DHT22;6474;53.474;9.894;2022-08-19T14:53:28;24.40;70.70
12819;DHT22;6474;53.474;9.894;2022-08-19T14:55:56;24.40;70.80
12819;DHT22;6474;53.474;9.894;2022-08-19T14:58:24;24.40;70.80
12819;DHT22;6474;53.474;9.894;2022-08-19T15:00:57;24.30;70.70
12819;DHT22;6474;53.474;9.894;2022-08-19T15:03:25;24.40;70.80
12819;DHT22;6474;53.474;9.894;2022-08-19T15:05:53;24.40;70.70
12819;DHT22;6474;53.474;9.894;2022-08-19T15:08:22;24.50;70.80
12819;DHT22;6474;53.474;9.894;2022-08-19T15:10:52;24.60;70.80
12819;DHT22;6474;53.474;9.894;2022-08-19T15:13:20;24.60;70.60
12819;DHT22;6474;53.474;9.894;2022-08-19T15:15:48;24.70;70.50
12819;DHT22;6474;53.474;9.894;2022-08-19T15:18:16;24.80;70.50
12819;DHT22;6474;53.474;9.894;2022-08-19T15:20:44;24.70;70.20
12819;DHT22;6474;53.474;9.894;2022-08-19T15:23:16;24.70;70.20
12819;DHT22;6474;53.474;9.894;2022-08-19T15:25:45;24.80;70.20
12819;DHT22;6474;53.474;9.894;2022-08-19T15:28:14;24.70;70.10
12819;DHT22;6474;53.474;9.894;2022-08-19T15:30:43;24.80;70.20
12819;DHT22;6474;53.474;9.894;2022-08-19T15:33:11;24.80;70.10
12819;DHT22;6474;53.474;9.894;2022-08-19T15:35:42;24.70;69.90
12819;DHT22;6474;53.474;9.894;2022-08-19T15:38:13;24.70;69.90
12819;DHT22;6474;53.474;9.894;2022-08-19T15:40:50;24.70;69.90
12819;DHT22;6474;53.474;9.894;2022-08-19T15:43:19;24.60;69.80
12819;DHT22;6474;53.474;9.894;2022-08-19T15:45:49;24.60;69.90
12819;DHT22;6474;53.474;9.894;2022-08-19T15:48:16;24.50;69.80
12819;DHT22;6474;53.474;9.894;2022-08-19T15:50:44;24.40;69.80
12819;DHT22;6474;53.474;9.894;2022-08-19T15:53:12;24.40;70.00
12819;DHT22;6474;53.474;9.894;2022-08-19T15:55:42;24.40;70.00
12819;DHT22;6474;53.474;9.894;2022-08-19T15:58:12;24.40;70.00
12819;DHT22;6474;53.474;9.894;2022-08-19T16:01:01;24.30;70.00
12819;DHT22;6474;53.474;9.894;2022-08-19T16:03:50;24.30;69.90
12819;DHT22;6474;53.474;9.894;2022-08-19T16:06:42;24.30;69.90
12819;DHT22;6474;53.474;9.894;2022-08-19T16:09:15;24.30;69.90
12819;DHT22;6474;53.474;9.894;2022-08-19T16:11:44;24.30;69.90